Cliffwood Beach, New Jersey
Current Conditions -  °F | °C
As of 8:35 AM on Friday 28 Nov 2014 (Local Time) from KLDJ Reporting Station
Clear Clear  
Wind Chill: 29°   Ceiling: Unl
Heat Index: 36°   Visibility: 10mi
Dew Point: 29°   Wind: 8mph
Humidity: 76%   Direction: 310°NW
Pressure: 30.21"   Gusts: NA
Location:  40.4398°N, 74.1836°W
Report Text: KLDJ 281335Z AUTO 31007KT 10SM CLR 02/M02 A3021 RMK AO2 T00211017
Loading
Personal Weather Stations






























Interactive Weather Map New forecast layout! Learn more

10-Day Weather Forecast

Advertisements
Track Severe Weather on mobile